Time;durP1;ratioP1;P1;durP2;ratioP2;P2;SDS_P1;SDS_P2;PMS_P1;PMS_P2;Temp;Humidity;BMP_temperature;BMP_pressure;BME280_temperature;BME280_humidity;BME280_pressure;Samples;Min_cycle;Max_cycle;Signal;HPM_P1;HPM_P2
2021/11/07 00:00:07;;;;;;;18.43;14.17;;;;;;;;;;5027957;28;20193;-73
2021/11/07 00:04:56;;;;;;;16.13;13.97;;;;;;;;;;5030608;28;20651;-73
2021/11/07 00:07:21;;;;;;;18.83;13.77;;;;;;;;;;5025888;28;20221;-73
2021/11/07 00:12:21;;;;;;;20.73;13.43;;;;;;;;;;5044439;28;20185;-73
2021/11/07 00:14:49;;;;;;;19.10;13.93;;;;;;;;;;5041918;28;20261;-73
2021/11/07 00:17:15;;;;;;;18.20;14.93;;;;;;;;;;5039483;28;20174;-73
2021/11/07 00:19:47;;;;;;;22.30;15.53;;;;;;;;;;5039761;28;20639;-74
2021/11/07 00:27:42;;;;;;;19.33;15.63;;;;;;;;;;4964987;28;20291;-74
2021/11/07 00:38:04;;;;;;;17.90;14.10;;;;;;;;;;5025683;28;20186;-74
2021/11/07 00:43:15;;;;;;;14.53;13.00;;;;;;;;;;5024571;28;20729;-73
2021/11/07 00:48:36;;;;;;;18.07;14.20;;;;;;;;;;5024592;28;20970;-74
2021/11/07 00:51:35;;;;;;;20.17;14.17;;;;;;;;;;5025631;28;20206;-74
2021/11/07 00:54:08;;;;;;;19.80;14.33;;;;;;;;;;5021954;28;20201;-73
2021/11/07 00:59:32;;;;;;;17.67;12.77;;;;;;;;;;5040052;28;20546;-74
2021/11/07 01:02:11;;;;;;;17.53;13.33;;;;;;;;;;5029033;28;20651;-74
2021/11/07 01:04:37;;;;;;;23.30;13.17;;;;;;;;;;5029229;28;20588;-74
2021/11/07 01:07:03;;;;;;;15.80;11.23;;;;;;;;;;5029401;28;20186;-74
2021/11/07 01:09:29;;;;;;;19.67;12.40;;;;;;;;;;5035952;28;20685;-74
2021/11/07 01:11:54;;;;;;;24.93;13.13;;;;;;;;;;5009477;28;20273;-74
2021/11/07 01:14:20;;;;;;;20.03;12.67;;;;;;;;;;5030198;28;20602;-74
2021/11/07 01:16:45;;;;;;;21.30;12.23;;;;;;;;;;5015476;28;20198;-75
2021/11/07 01:19:11;;;;;;;17.63;11.47;;;;;;;;;;5035091;28;20188;-75
2021/11/07 01:21:40;;;;;;;14.43;11.03;;;;;;;;;;5013329;28;20197;-73
2021/11/07 01:24:10;;;;;;;14.77;11.30;;;;;;;;;;5029021;28;21109;-74
2021/11/07 01:26:49;;;;;;;17.33;12.13;;;;;;;;;;5012858;28;20213;-75
2021/11/07 01:29:19;;;;;;;19.27;10.93;;;;;;;;;;5013195;28;20905;-74
2021/11/07 01:31:46;;;;;;;17.63;11.53;;;;;;;;;;5028492;28;20584;-74
2021/11/07 01:34:44;;;;;;;18.23;10.73;;;;;;;;;;5026975;28;20186;-73
2021/11/07 01:37:18;;;;;;;19.10;10.70;;;;;;;;;;5028376;28;20216;-73
2021/11/07 01:39:57;;;;;;;17.73;10.67;;;;;;;;;;5028391;28;20659;-74
2021/11/07 01:42:34;;;;;;;16.40;11.93;;;;;;;;;;5017168;28;20255;-73
2021/11/07 01:45:06;;;;;;;25.20;12.07;;;;;;;;;;5027135;28;20201;-74
2021/11/07 01:47:33;;;;;;;19.23;11.33;;;;;;;;;;5028126;28;20550;-74
2021/11/07 01:49:59;;;;;;;18.57;11.43;;;;;;;;;;5012404;28;20205;-73
2021/11/07 01:52:26;;;;;;;21.83;10.13;;;;;;;;;;5029361;28;20176;-73
2021/11/07 01:57:23;;;;;;;19.90;10.30;;;;;;;;;;5030810;28;20204;-75
2021/11/07 01:59:50;;;;;;;17.07;9.90;;;;;;;;;;5028268;28;20194;-74
2021/11/07 02:02:17;;;;;;;27.00;10.00;;;;;;;;;;5027733;28;20189;-74
2021/11/07 02:04:42;;;;;;;24.63;9.77;;;;;;;;;;5033544;28;20193;-74
2021/11/07 02:07:08;;;;;;;18.80;9.13;;;;;;;;;;5028139;28;20201;-74
2021/11/07 02:09:33;;;;;;;16.70;8.73;;;;;;;;;;5033738;28;20205;-74
2021/11/07 02:11:59;;;;;;;20.33;9.03;;;;;;;;;;5027824;28;20178;-74
2021/11/07 02:14:24;;;;;;;16.87;7.93;;;;;;;;;;5028826;28;20204;-74
2021/11/07 02:16:50;;;;;;;14.37;7.27;;;;;;;;;;5011532;28;20202;-74
2021/11/07 02:19:16;;;;;;;15.03;6.60;;;;;;;;;;5034757;28;20567;-74
2021/11/07 02:21:43;;;;;;;23.37;7.77;;;;;;;;;;5026816;28;20232;-74
2021/11/07 02:24:09;;;;;;;26.47;7.67;;;;;;;;;;5007353;28;20186;-74
2021/11/07 02:26:34;;;;;;;18.83;7.07;;;;;;;;;;5028265;28;20311;-74
2021/11/07 02:29:00;;;;;;;17.83;6.50;;;;;;;;;;5030522;28;20350;-74
2021/11/07 02:31:25;;;;;;;20.17;6.60;;;;;;;;;;5012586;28;20210;-74
2021/11/07 02:33:50;;;;;;;20.30;6.27;;;;;;;;;;5027848;28;20186;-74
2021/11/07 02:36:17;;;;;;;15.80;6.17;;;;;;;;;;5013483;28;20205;-74
2021/11/07 02:38:43;;;;;;;17.17;6.37;;;;;;;;;;5025033;28;20243;-74
2021/11/07 02:41:08;;;;;;;18.13;7.23;;;;;;;;;;5028164;28;20685;-73
2021/11/07 02:43:43;;;;;;;19.60;6.60;;;;;;;;;;5026154;28;20564;-74
2021/11/07 02:46:15;;;;;;;16.30;6.37;;;;;;;;;;5025612;28;20262;-74
2021/11/07 02:48:40;;;;;;;23.10;6.00;;;;;;;;;;5008121;28;20761;-74
2021/11/07 02:51:05;;;;;;;24.57;6.90;;;;;;;;;;5026274;28;20214;-74
2021/11/07 02:53:30;;;;;;;16.33;6.17;;;;;;;;;;5026120;28;20189;-73
2021/11/07 02:55:56;;;;;;;20.58;7.28;;;;;;;;;;5030326;28;20208;-73
2021/11/07 02:58:21;;;;;;;19.60;6.57;;;;;;;;;;5022720;28;20184;-74
2021/11/07 03:00:46;;;;;;;16.57;6.43;;;;;;;;;;5032394;28;20541;-73
2021/11/07 03:03:11;;;;;;;19.00;6.40;;;;;;;;;;5008954;28;20181;-73
2021/11/07 03:05:37;;;;;;;13.98;6.85;;;;;;;;;;5027083;28;20212;-73
2021/11/07 03:08:02;;;;;;;15.45;6.50;;;;;;;;;;5010441;28;20181;-74
2021/11/07 03:10:30;;;;;;;17.90;6.50;;;;;;;;;;5011362;28;20274;-73
2021/11/07 03:13:22;;;;;;;21.47;8.57;;;;;;;;;;5025213;28;20189;-73
2021/11/07 03:15:47;;;;;;;16.60;7.57;;;;;;;;;;5020749;28;20202;-73
2021/11/07 03:18:13;;;;;;;15.80;7.53;;;;;;;;;;5030691;28;20761;-72
2021/11/07 03:20:39;;;;;;;18.37;6.67;;;;;;;;;;5001039;28;20190;-73
2021/11/07 03:23:05;;;;;;;18.02;6.40;;;;;;;;;;5000713;28;20193;-73
2021/11/07 03:25:30;;;;;;;17.45;6.82;;;;;;;;;;5027631;28;20220;-73
2021/11/07 03:27:56;;;;;;;16.83;6.60;;;;;;;;;;5026825;28;22268;-73
2021/11/07 03:36:05;;;;;;;17.60;3.70;;;;;;;;;;4995185;28;20244;-73
2021/11/07 03:38:30;;;;;;;19.37;4.43;;;;;;;;;;5024669;28;20173;-73
2021/11/07 03:40:55;;;;;;;18.43;4.20;;;;;;;;;;5027647;28;20212;-73
2021/11/07 03:43:25;;;;;;;15.77;4.07;;;;;;;;;;5023201;28;20628;-74
2021/11/07 03:45:50;;;;;;;16.43;3.17;;;;;;;;;;5025511;28;20256;-73
2021/11/07 03:48:15;;;;;;;18.43;3.40;;;;;;;;;;5023558;28;20276;-73
2021/11/07 03:50:44;;;;;;;13.30;4.23;;;;;;;;;;5025255;28;20258;-74
2021/11/07 03:53:09;;;;;;;12.83;3.33;;;;;;;;;;5008786;28;20535;-73
2021/11/07 03:55:35;;;;;;;12.43;3.57;;;;;;;;;;5026091;28;20274;-73
2021/11/07 03:58:00;;;;;;;12.10;3.43;;;;;;;;;;5027421;28;20574;-73
2021/11/07 04:00:25;;;;;;;15.87;3.57;;;;;;;;;;5025723;28;20647;-73
2021/11/07 04:02:51;;;;;;;10.17;3.87;;;;;;;;;;5025109;28;20662;-73
2021/11/07 04:05:16;;;;;;;9.53;3.13;;;;;;;;;;5010122;28;20293;-74
2021/11/07 04:07:41;;;;;;;12.77;3.50;;;;;;;;;;5008352;28;21803;-73
2021/11/07 04:10:08;;;;;;;15.93;3.60;;;;;;;;;;5012852;28;20213;-73
2021/11/07 04:12:33;;;;;;;20.97;4.23;;;;;;;;;;5002163;28;20194;-73
2021/11/07 04:14:58;;;;;;;14.07;3.70;;;;;;;;;;5024657;28;20193;-73
2021/11/07 04:17:23;;;;;;;10.10;2.90;;;;;;;;;;5030742;28;20181;-72
2021/11/07 04:19:49;;;;;;;14.30;3.80;;;;;;;;;;5024699;28;20237;-73
2021/11/07 04:22:14;;;;;;;12.23;2.83;;;;;;;;;;5022660;28;20189;-73
2021/11/07 04:24:40;;;;;;;11.80;3.20;;;;;;;;;;5024046;28;20206;-73
2021/11/07 04:27:05;;;;;;;7.87;3.20;;;;;;;;;;5028736;28;20712;-73
2021/11/07 04:29:31;;;;;;;15.30;3.10;;;;;;;;;;5024820;28;20190;-73
2021/11/07 04:31:56;;;;;;;14.30;3.27;;;;;;;;;;5025042;28;20188;-73
2021/11/07 04:34:22;;;;;;;11.97;3.23;;;;;;;;;;5024844;28;20544;-73
2021/11/07 04:36:47;;;;;;;12.10;3.20;;;;;;;;;;5013516;28;20631;-74
2021/11/07 04:39:12;;;;;;;24.33;3.17;;;;;;;;;;5026979;28;20186;-73
2021/11/07 04:41:37;;;;;;;10.60;2.63;;;;;;;;;;5029205;28;20177;-74
2021/11/07 04:44:03;;;;;;;14.20;3.27;;;;;;;;;;5026454;28;20178;-73
2021/11/07 04:46:28;;;;;;;10.77;3.13;;;;;;;;;;5007931;28;20327;-74
2021/11/07 04:48:53;;;;;;;16.07;3.20;;;;;;;;;;5008472;28;20192;-74
2021/11/07 04:51:19;;;;;;;14.13;2.87;;;;;;;;;;5026585;28;20587;-73
2021/11/07 04:53:45;;;;;;;12.33;3.27;;;;;;;;;;5026823;28;20178;-74
2021/11/07 04:56:11;;;;;;;6.07;2.27;;;;;;;;;;5018746;28;20675;-73
2021/11/07 04:58:36;;;;;;;13.57;2.63;;;;;;;;;;5011095;28;20231;-73
2021/11/07 05:01:02;;;;;;;8.93;3.50;;;;;;;;;;5026116;28;20177;-73
2021/11/07 05:03:28;;;;;;;18.63;4.07;;;;;;;;;;5025770;28;20177;-73
2021/11/07 05:05:54;;;;;;;11.13;2.60;;;;;;;;;;5025824;28;20250;-73
2021/11/07 05:08:19;;;;;;;14.47;2.30;;;;;;;;;;5024876;28;20611;-74
2021/11/07 05:10:44;;;;;;;16.73;3.57;;;;;;;;;;5026705;28;20248;-73
2021/11/07 05:13:10;;;;;;;13.53;3.33;;;;;;;;;;5024568;28;20278;-73
2021/11/07 05:15:36;;;;;;;10.50;4.13;;;;;;;;;;5013883;28;20562;-73
2021/11/07 05:18:02;;;;;;;13.63;3.40;;;;;;;;;;5027943;28;20198;-73
2021/11/07 05:20:27;;;;;;;18.63;4.27;;;;;;;;;;5023950;28;20223;-74
2021/11/07 05:22:53;;;;;;;13.03;2.73;;;;;;;;;;5024298;28;20312;-74
2021/11/07 05:25:18;;;;;;;9.60;2.60;;;;;;;;;;5024049;28;20221;-73
2021/11/07 05:27:43;;;;;;;13.13;3.33;;;;;;;;;;5011942;28;20190;-74
2021/11/07 05:30:10;;;;;;;9.10;3.33;;;;;;;;;;5007995;28;20209;-73
2021/11/07 05:32:35;;;;;;;17.40;3.77;;;;;;;;;;5025475;28;20560;-73
2021/11/07 05:35:00;;;;;;;18.13;3.90;;;;;;;;;;5023410;28;20261;-74
2021/11/07 05:37:26;;;;;;;16.50;3.70;;;;;;;;;;5025352;28;20185;-74
2021/11/07 05:39:52;;;;;;;12.17;3.57;;;;;;;;;;5022053;28;20280;-74
2021/11/07 05:42:18;;;;;;;12.73;3.00;;;;;;;;;;5007003;28;20277;-74
2021/11/07 05:44:43;;;;;;;10.83;3.30;;;;;;;;;;5028719;28;20354;-74
2021/11/07 05:47:08;;;;;;;11.47;3.53;;;;;;;;;;5027646;28;20651;-74
2021/11/07 05:49:34;;;;;;;9.97;3.63;;;;;;;;;;5012904;28;20220;-74
2021/11/07 05:51:59;;;;;;;15.40;2.87;;;;;;;;;;5028067;28;20189;-74
2021/11/07 05:54:25;;;;;;;15.70;4.03;;;;;;;;;;5013049;28;21730;-73
2021/11/07 05:56:50;;;;;;;15.37;3.60;;;;;;;;;;5025874;28;20324;-74
2021/11/07 05:59:15;;;;;;;11.00;2.87;;;;;;;;;;5029603;28;20179;-73
2021/11/07 06:01:40;;;;;;;10.83;3.07;;;;;;;;;;5028498;28;20699;-74
2021/11/07 06:04:06;;;;;;;11.13;3.10;;;;;;;;;;5027170;28;20196;-73
2021/11/07 06:06:31;;;;;;;10.53;3.20;;;;;;;;;;5028554;28;20766;-74
2021/11/07 06:08:56;;;;;;;12.00;3.70;;;;;;;;;;5027133;28;20197;-74
2021/11/07 06:11:21;;;;;;;8.90;2.27;;;;;;;;;;5011368;28;20687;-74
2021/11/07 06:13:47;;;;;;;16.03;3.33;;;;;;;;;;5026523;28;20186;-74
2021/11/07 06:16:12;;;;;;;16.07;3.50;;;;;;;;;;5029482;28;20193;-74
2021/11/07 06:18:37;;;;;;;21.77;6.10;;;;;;;;;;5029736;28;21548;-74
2021/11/07 06:21:02;;;;;;;14.90;3.90;;;;;;;;;;5026927;28;20208;-73
2021/11/07 06:23:28;;;;;;;17.80;3.90;;;;;;;;;;5028318;28;20189;-74
2021/11/07 06:25:53;;;;;;;14.90;3.83;;;;;;;;;;5025187;28;20221;-74
2021/11/07 06:28:19;;;;;;;17.53;4.57;;;;;;;;;;5031549;28;20283;-74
2021/11/07 06:30:49;;;;;;;11.67;3.47;;;;;;;;;;5026555;28;20205;-74
2021/11/07 06:33:15;;;;;;;16.07;3.03;;;;;;;;;;5028990;28;20202;-74
2021/11/07 06:35:41;;;;;;;14.90;3.90;;;;;;;;;;5028884;28;20202;-74
2021/11/07 06:38:06;;;;;;;20.97;3.73;;;;;;;;;;5027949;28;20193;-73
2021/11/07 06:40:33;;;;;;;11.90;3.37;;;;;;;;;;5028832;28;20235;-74
2021/11/07 06:42:58;;;;;;;13.20;3.40;;;;;;;;;;5028286;28;20519;-74
2021/11/07 06:45:23;;;;;;;18.73;3.63;;;;;;;;;;5026905;28;20201;-74
2021/11/07 06:47:49;;;;;;;14.07;3.73;;;;;;;;;;5026591;28;20543;-74
2021/11/07 06:50:14;;;;;;;16.67;3.27;;;;;;;;;;5025824;28;20317;-74
2021/11/07 06:52:40;;;;;;;10.90;2.97;;;;;;;;;;5026545;28;20433;-73
2021/11/07 06:55:06;;;;;;;12.87;3.13;;;;;;;;;;5026958;28;20208;-74
2021/11/07 06:57:31;;;;;;;16.90;2.83;;;;;;;;;;5030490;28;20732;-72
2021/11/07 06:59:57;;;;;;;14.03;4.47;;;;;;;;;;5011414;28;20204;-74
2021/11/07 07:02:22;;;;;;;18.23;4.77;;;;;;;;;;5031675;28;20178;-74
2021/11/07 07:04:48;;;;;;;15.53;3.93;;;;;;;;;;5027859;28;20180;-73
2021/11/07 07:07:14;;;;;;;12.93;3.27;;;;;;;;;;5028829;28;20633;-74
2021/11/07 07:09:52;;;;;;;18.57;3.37;;;;;;;;;;5032716;28;20200;-73
2021/11/07 07:12:27;;;;;;;16.87;3.33;;;;;;;;;;5009723;28;20200;-73
2021/11/07 07:19:55;;;;;;;15.43;2.97;;;;;;;;;;5029614;28;20220;-74
2021/11/07 07:22:42;;;;;;;17.37;4.20;;;;;;;;;;5014169;28;20180;-74
2021/11/07 07:30:44;;;;;;;17.50;3.80;;;;;;;;;;5026214;28;20297;-74
2021/11/07 07:33:33;;;;;;;10.73;3.63;;;;;;;;;;5025863;28;20686;-72
2021/11/07 07:35:58;;;;;;;18.07;4.47;;;;;;;;;;5024354;28;20545;-72
2021/11/07 07:38:24;;;;;;;13.27;3.00;;;;;;;;;;5025740;28;20227;-73
2021/11/07 07:40:50;;;;;;;13.13;3.63;;;;;;;;;;5025340;28;20181;-75
2021/11/07 07:43:15;;;;;;;15.30;3.70;;;;;;;;;;5012424;28;20830;-74
2021/11/07 07:45:40;;;;;;;14.10;3.40;;;;;;;;;;5025972;28;20225;-73
2021/11/07 07:48:05;;;;;;;15.20;3.20;;;;;;;;;;5024562;28;20935;-73
2021/11/07 07:50:31;;;;;;;10.63;3.33;;;;;;;;;;5026567;28;20301;-73
2021/11/07 07:52:57;;;;;;;13.30;2.57;;;;;;;;;;5039086;28;20226;-74
2021/11/07 07:55:22;;;;;;;15.03;3.13;;;;;;;;;;5048033;28;20201;-74
2021/11/07 07:57:47;;;;;;;14.80;4.33;;;;;;;;;;5041715;28;20193;-73
2021/11/07 08:00:13;;;;;;;17.73;4.33;;;;;;;;;;5042809;28;20273;-74
2021/11/07 08:02:39;;;;;;;14.63;3.90;;;;;;;;;;5028235;28;20190;-74
2021/11/07 08:05:05;;;;;;;11.40;2.97;;;;;;;;;;5025708;28;21469;-74
2021/11/07 08:07:30;;;;;;;14.47;3.40;;;;;;;;;;5023686;28;20951;-74
2021/11/07 08:09:55;;;;;;;14.07;3.60;;;;;;;;;;5025530;28;20240;-73
2021/11/07 08:12:20;;;;;;;13.23;2.93;;;;;;;;;;5022853;28;20170;-74
2021/11/07 08:14:47;;;;;;;12.93;3.43;;;;;;;;;;5007932;28;20177;-74
2021/11/07 08:17:12;;;;;;;13.37;2.93;;;;;;;;;;5015071;28;20220;-72
2021/11/07 08:19:37;;;;;;;21.77;3.50;;;;;;;;;;5026559;28;21212;-74
2021/11/07 08:22:02;;;;;;;10.87;3.00;;;;;;;;;;5025439;28;20189;-74
2021/11/07 08:24:28;;;;;;;12.73;2.97;;;;;;;;;;5009347;28;20176;-73
2021/11/07 08:26:53;;;;;;;13.37;3.17;;;;;;;;;;5028186;28;20328;-73
2021/11/07 08:29:19;;;;;;;13.67;3.53;;;;;;;;;;5026065;28;20173;-74
2021/11/07 08:31:49;;;;;;;15.47;4.23;;;;;;;;;;5012277;28;20233;-74
2021/11/07 08:34:14;;;;;;;15.83;3.53;;;;;;;;;;5025283;28;20786;-74
2021/11/07 08:39:19;;;;;;;18.70;3.53;;;;;;;;;;5025772;28;20271;-73
2021/11/07 08:41:53;;;;;;;14.20;3.33;;;;;;;;;;5026299;28;20225;-74
2021/11/07 09:00:33;;;;;;;9.10;3.03;;;;;;;;;;5026185;28;20180;-74
2021/11/07 09:03:21;;;;;;;11.50;3.10;;;;;;;;;;5022695;28;20268;-74
2021/11/07 09:06:00;;;;;;;11.63;3.57;;;;;;;;;;5024598;28;20759;-74
2021/11/07 09:08:26;;;;;;;24.77;4.17;;;;;;;;;;5028044;28;20189;-74
2021/11/07 09:10:52;;;;;;;14.03;2.97;;;;;;;;;;5013315;28;20202;-74
2021/11/07 09:13:18;;;;;;;13.57;3.87;;;;;;;;;;5026450;28;20235;-74
2021/11/07 09:15:45;;;;;;;11.27;3.13;;;;;;;;;;5025570;28;20197;-73
2021/11/07 09:18:10;;;;;;;12.27;3.87;;;;;;;;;;5036148;28;20186;-73
2021/11/07 09:20:42;;;;;;;10.37;2.53;;;;;;;;;;5026265;28;20683;-73
2021/11/07 09:23:14;;;;;;;13.27;2.77;;;;;;;;;;5036974;28;20189;-74
2021/11/07 09:25:43;;;;;;;16.52;3.28;;;;;;;;;;5047990;28;20245;-73
2021/11/07 09:28:13;;;;;;;13.95;2.97;;;;;;;;;;5033891;28;20179;-73
2021/11/07 09:33:20;;;;;;;12.10;3.45;;;;;;;;;;5029513;28;20181;-74
2021/11/07 09:38:32;;;;;;;14.57;3.38;;;;;;;;;;5028953;28;20835;-74
2021/11/07 09:43:56;;;;;;;13.93;3.05;;;;;;;;;;5031310;28;20848;-73
2021/11/07 09:49:03;;;;;;;18.85;3.85;;;;;;;;;;5029460;28;20737;-72
2021/11/07 09:51:34;;;;;;;17.15;3.80;;;;;;;;;;5011678;28;20259;-72
2021/11/07 09:54:00;;;;;;;15.57;4.07;;;;;;;;;;5014020;28;20182;-72
2021/11/07 09:56:26;;;;;;;10.90;3.20;;;;;;;;;;5028736;28;20647;-72
2021/11/07 09:58:54;;;;;;;27.00;4.63;;;;;;;;;;5033390;28;20648;-74
2021/11/07 10:01:19;;;;;;;12.10;3.38;;;;;;;;;;5025338;28;20258;-74
2021/11/07 10:03:45;;;;;;;16.42;3.63;;;;;;;;;;5010602;28;20659;-74
2021/11/07 10:06:22;;;;;;;15.70;3.30;;;;;;;;;;5009632;28;20231;-73
2021/11/07 10:08:47;;;;;;;10.25;2.88;;;;;;;;;;5029731;28;20202;-73
2021/11/07 10:11:13;;;;;;;13.70;3.92;;;;;;;;;;5010377;28;20205;-74
2021/11/07 10:13:55;;;;;;;16.00;2.53;;;;;;;;;;5009605;28;21770;-73
2021/11/07 10:16:32;;;;;;;18.83;3.00;;;;;;;;;;5028863;28;20300;-73
2021/11/07 10:19:10;;;;;;;10.10;3.03;;;;;;;;;;5016624;28;20277;-74
2021/11/07 10:21:44;;;;;;;13.80;2.83;;;;;;;;;;5028453;28;20844;-75
2021/11/07 10:24:14;;;;;;;11.45;2.78;;;;;;;;;;5023974;28;20213;-75
2021/11/07 10:26:43;;;;;;;10.18;3.03;;;;;;;;;;5032771;28;20209;-75
2021/11/07 10:29:19;;;;;;;13.07;3.03;;;;;;;;;;5024965;28;20183;-75
2021/11/07 10:31:57;;;;;;;18.05;2.88;;;;;;;;;;5029209;28;20205;-75
2021/11/07 10:39:28;;;;;;;11.80;3.10;;;;;;;;;;5029113;28;20196;-74
2021/11/07 10:44:36;;;;;;;11.48;2.75;;;;;;;;;;5023261;28;20209;-74
2021/11/07 10:52:26;;;;;;;9.57;3.50;;;;;;;;;;5027470;28;20185;-75
2021/11/07 10:54:52;;;;;;;14.95;2.95;;;;;;;;;;5002439;28;20178;-75
2021/11/07 10:57:19;;;;;;;15.95;3.40;;;;;;;;;;5014009;28;20185;-74
2021/11/07 11:00:05;;;;;;;14.95;3.45;;;;;;;;;;5026063;28;20271;-74
2021/11/07 11:02:35;;;;;;;13.13;3.42;;;;;;;;;;5028459;28;20603;-75
2021/11/07 11:05:01;;;;;;;14.55;3.65;;;;;;;;;;5026375;28;20212;-75
2021/11/07 11:07:26;;;;;;;15.30;3.03;;;;;;;;;;5027139;28;20228;-75
2021/11/07 11:10:15;;;;;;;12.05;2.45;;;;;;;;;;5026491;28;20183;-75
2021/11/07 11:13:00;;;;;;;13.40;2.95;;;;;;;;;;5026841;28;20178;-75
2021/11/07 11:15:34;;;;;;;10.70;4.78;;;;;;;;;;5026011;28;20198;-75
2021/11/07 11:18:13;;;;;;;12.65;2.80;;;;;;;;;;5024617;28;20935;-74
2021/11/07 11:21:07;;;;;;;11.48;3.30;;;;;;;;;;5023274;28;20269;-74
2021/11/07 11:23:40;;;;;;;10.60;2.97;;;;;;;;;;5027460;28;20305;-75
2021/11/07 11:26:28;;;;;;;9.18;3.17;;;;;;;;;;5029446;28;20217;-75
2021/11/07 11:32:15;;;;;;;11.55;4.28;;;;;;;;;;5027460;28;20248;-75
2021/11/07 11:34:19;;;;;;;14.70;3.58;;;;;;;;;;5018150;28;20220;-74
2021/11/07 11:36:56;;;;;;;12.55;2.60;;;;;;;;;;5027771;28;20229;-74
2021/11/07 11:39:31;;;;;;;11.65;3.90;;;;;;;;;;5027986;28;20268;-75
2021/11/07 11:42:03;;;;;;;15.63;3.67;;;;;;;;;;5027562;28;20173;-74
2021/11/07 11:44:29;;;;;;;13.63;3.85;;;;;;;;;;5028769;28;20253;-75
2021/11/07 11:47:16;;;;;;;12.32;4.20;;;;;;;;;;5010182;28;20292;-75
2021/11/07 11:55:18;;;;;;;11.52;3.15;;;;;;;;;;5027462;28;20713;-74
2021/11/07 11:58:12;;;;;;;16.65;4.88;;;;;;;;;;5028109;28;20178;-74
2021/11/07 12:00:49;;;;;;;12.23;3.58;;;;;;;;;;5012443;28;20225;-73
2021/11/07 12:03:38;;;;;;;10.95;2.88;;;;;;;;;;5006348;28;21604;-75
2021/11/07 12:06:20;;;;;;;16.15;4.00;;;;;;;;;;5023717;28;20677;-76
2021/11/07 12:08:59;;;;;;;20.90;3.35;;;;;;;;;;5009766;28;20618;-76
2021/11/07 12:11:40;;;;;;;11.43;3.35;;;;;;;;;;5027110;28;20646;-75
2021/11/07 12:14:14;;;;;;;26.95;5.97;;;;;;;;;;5028773;28;20169;-75
2021/11/07 12:16:42;;;;;;;10.93;3.78;;;;;;;;;;5031511;28;20208;-75
2021/11/07 12:19:09;;;;;;;12.13;3.63;;;;;;;;;;5015770;28;20264;-75
2021/11/07 12:22:04;;;;;;;17.50;3.65;;;;;;;;;;5026641;28;20185;-74
2021/11/07 12:24:32;;;;;;;12.95;4.00;;;;;;;;;;5004649;28;20186;-74
2021/11/07 12:27:16;;;;;;;18.80;4.80;;;;;;;;;;5034968;28;20232;-73
2021/11/07 12:29:43;;;;;;;18.23;3.60;;;;;;;;;;5026929;28;20185;-74
2021/11/07 12:32:09;;;;;;;19.30;3.70;;;;;;;;;;5027390;28;20589;-73
2021/11/07 12:34:53;;;;;;;13.50;3.67;;;;;;;;;;5002750;28;20204;-74
2021/11/07 12:40:33;;;;;;;15.40;4.75;;;;;;;;;;5024950;28;22649;-73
2021/11/07 12:43:00;;;;;;;14.88;3.53;;;;;;;;;;5024816;28;20197;-75
2021/11/07 12:45:28;;;;;;;18.47;3.17;;;;;;;;;;5004935;28;21474;-75
2021/11/07 12:48:01;;;;;;;11.30;3.70;;;;;;;;;;5023295;28;20177;-75
2021/11/07 12:50:26;;;;;;;25.85;6.80;;;;;;;;;;5028649;28;21505;-74
2021/11/07 12:52:53;;;;;;;17.23;4.45;;;;;;;;;;5029817;28;20570;-75
2021/11/07 12:55:28;;;;;;;18.27;4.70;;;;;;;;;;5031340;28;20204;-74
2021/11/07 12:57:53;;;;;;;21.92;3.45;;;;;;;;;;5036182;28;20191;-73
2021/11/07 13:00:19;;;;;;;17.15;3.78;;;;;;;;;;5029625;28;20181;-76
2021/11/07 13:02:44;;;;;;;18.13;4.40;;;;;;;;;;5030273;28;20319;-74
2021/11/07 13:05:24;;;;;;;14.80;2.97;;;;;;;;;;5029261;28;20244;-74
2021/11/07 13:08:01;;;;;;;12.57;3.13;;;;;;;;;;5005735;28;20238;-73
2021/11/07 13:10:44;;;;;;;19.37;4.00;;;;;;;;;;5015670;28;20213;-73
2021/11/07 13:13:20;;;;;;;19.00;3.47;;;;;;;;;;5029908;28;20178;-74
2021/11/07 13:18:35;;;;;;;19.97;4.87;;;;;;;;;;5035094;28;20567;-74
2021/11/07 13:24:57;;;;;;;20.37;4.90;;;;;;;;;;5032402;28;20197;-75
2021/11/07 13:27:05;;;;;;;23.07;5.50;;;;;;;;;;5023230;28;20318;-75
2021/11/07 13:29:37;;;;;;;16.20;3.83;;;;;;;;;;5029471;28;20563;-75
2021/11/07 13:35:00;;;;;;;21.73;4.47;;;;;;;;;;5029990;28;20666;-75
2021/11/07 13:37:29;;;;;;;21.40;5.90;;;;;;;;;;5012373;28;20186;-75
2021/11/07 13:40:04;;;;;;;20.77;4.77;;;;;;;;;;5011183;28;20189;-74
2021/11/07 13:42:33;;;;;;;19.77;5.20;;;;;;;;;;5031204;28;20651;-76
2021/11/07 13:45:02;;;;;;;15.67;3.83;;;;;;;;;;5029304;28;20252;-73
2021/11/07 13:47:31;;;;;;;15.63;3.93;;;;;;;;;;5028258;28;20196;-73
2021/11/07 13:49:56;;;;;;;18.10;4.83;;;;;;;;;;5028345;28;20261;-73
2021/11/07 13:52:22;;;;;;;29.07;5.87;;;;;;;;;;5037155;28;20300;-76
2021/11/07 13:54:47;;;;;;;20.83;4.53;;;;;;;;;;5030016;28;20185;-76
2021/11/07 13:57:13;;;;;;;18.37;4.97;;;;;;;;;;5031556;28;20193;-73
2021/11/07 13:59:41;;;;;;;16.50;4.30;;;;;;;;;;5029654;28;20263;-75
2021/11/07 14:02:14;;;;;;;16.43;4.07;;;;;;;;;;5028511;28;20181;-75
2021/11/07 14:04:40;;;;;;;20.70;3.80;;;;;;;;;;5026996;28;20599;-74
2021/11/07 14:07:16;;;;;;;19.10;3.80;;;;;;;;;;5015643;28;20909;-74
2021/11/07 14:09:54;;;;;;;17.13;3.80;;;;;;;;;;5026620;28;20242;-74
2021/11/07 14:12:30;;;;;;;18.67;3.87;;;;;;;;;;5030232;28;20721;-74
2021/11/07 14:15:29;;;;;;;21.83;4.03;;;;;;;;;;5026031;28;20173;-75
2021/11/07 14:18:11;;;;;;;13.47;3.57;;;;;;;;;;4981728;28;20196;-75
2021/11/07 14:20:39;;;;;;;13.10;3.20;;;;;;;;;;5008298;28;20777;-75
2021/11/07 14:23:10;;;;;;;22.40;4.07;;;;;;;;;;5024414;28;22284;-76
2021/11/07 14:25:45;;;;;;;16.73;4.00;;;;;;;;;;5027969;28;20225;-73
2021/11/07 14:28:20;;;;;;;17.50;6.00;;;;;;;;;;5013684;28;20281;-74
2021/11/07 14:30:46;;;;;;;16.03;4.03;;;;;;;;;;5011557;28;20262;-73
2021/11/07 14:33:15;;;;;;;17.27;4.23;;;;;;;;;;5029566;28;20605;-73
2021/11/07 14:35:43;;;;;;;21.10;5.03;;;;;;;;;;5027461;28;20371;-71
2021/11/07 14:38:18;;;;;;;21.80;4.57;;;;;;;;;;5013115;28;20650;-73
2021/11/07 14:41:05;;;;;;;17.10;4.27;;;;;;;;;;5027220;28;20805;-73
2021/11/07 14:43:47;;;;;;;26.30;5.20;;;;;;;;;;5026167;28;20207;-73
2021/11/07 14:46:28;;;;;;;22.20;3.77;;;;;;;;;;5026556;28;20209;-72
2021/11/07 14:49:15;;;;;;;25.57;4.63;;;;;;;;;;5014309;28;20746;-72
2021/11/07 14:51:56;;;;;;;20.37;4.90;;;;;;;;;;5028280;28;20213;-72
2021/11/07 14:54:40;;;;;;;12.87;3.33;;;;;;;;;;5015495;28;20189;-73
2021/11/07 14:58:06;;;;;;;20.43;4.13;;;;;;;;;;5011423;28;20602;-73
2021/11/07 15:00:06;;;;;;;17.17;3.90;;;;;;;;;;5016462;28;20191;-72
2021/11/07 15:02:53;;;;;;;17.03;4.07;;;;;;;;;;5027134;28;20561;-73
2021/11/07 15:05:36;;;;;;;20.47;4.40;;;;;;;;;;5028526;28;20808;-73
2021/11/07 15:08:10;;;;;;;20.57;5.23;;;;;;;;;;5027336;28;20181;-73
2021/11/07 15:13:10;;;;;;;18.10;4.80;;;;;;;;;;5027104;28;20196;-73
2021/11/07 15:15:50;;;;;;;12.90;4.20;;;;;;;;;;5024421;28;20628;-72
2021/11/07 15:18:22;;;;;;;19.93;4.73;;;;;;;;;;5036511;28;20206;-73
2021/11/07 15:20:55;;;;;;;17.07;4.37;;;;;;;;;;5031243;28;20182;-73
2021/11/07 15:23:26;;;;;;;19.97;4.23;;;;;;;;;;5025991;28;20190;-72
2021/11/07 15:25:51;;;;;;;16.93;4.20;;;;;;;;;;5030804;28;20221;-71
2021/11/07 15:28:17;;;;;;;19.20;3.80;;;;;;;;;;5026042;28;20189;-74
2021/11/07 15:30:42;;;;;;;20.47;4.97;;;;;;;;;;5027035;28;20286;-73
2021/11/07 15:33:07;;;;;;;13.27;3.90;;;;;;;;;;5028648;28;20273;-72
2021/11/07 15:35:33;;;;;;;9.70;3.70;;;;;;;;;;5013599;28;20215;-73
2021/11/07 15:38:08;;;;;;;12.93;2.90;;;;;;;;;;5027345;28;20430;-73
2021/11/07 15:40:33;;;;;;;9.67;2.50;;;;;;;;;;5027735;28;20253;-71
2021/11/07 15:42:58;;;;;;;13.33;2.90;;;;;;;;;;5030324;28;20185;-72
2021/11/07 15:45:25;;;;;;;16.53;2.60;;;;;;;;;;5028406;28;20248;-71
2021/11/07 15:47:59;;;;;;;14.83;4.13;;;;;;;;;;5026722;28;21126;-71
2021/11/07 15:50:53;;;;;;;13.73;2.97;;;;;;;;;;5023565;28;20378;-71
2021/11/07 16:06:18;;;;;;;9.63;2.60;;;;;;;;;;5028286;28;20216;-74
2021/11/07 16:11:36;;;;;;;12.60;2.90;;;;;;;;;;5028986;28;20939;-72
2021/11/07 16:16:51;;;;;;;10.40;3.00;;;;;;;;;;5026881;28;20696;-74
2021/11/07 16:19:21;;;;;;;14.90;4.70;;;;;;;;;;5034205;28;20189;-71
2021/11/07 16:21:50;;;;;;;9.50;2.90;;;;;;;;;;5027105;28;20193;-73
2021/11/07 16:24:18;;;;;;;14.57;3.83;;;;;;;;;;5004920;28;20289;-75
2021/11/07 16:26:46;;;;;;;9.90;2.93;;;;;;;;;;5027126;28;21243;-74
2021/11/07 16:29:12;;;;;;;16.13;3.60;;;;;;;;;;5027070;28;20206;-74
2021/11/07 16:31:53;;;;;;;16.70;4.13;;;;;;;;;;5025604;28;20208;-75
2021/11/07 16:34:19;;;;;;;17.50;4.13;;;;;;;;;;5026560;28;20323;-74
2021/11/07 16:36:46;;;;;;;13.93;3.67;;;;;;;;;;5027150;28;20361;-75
2021/11/07 16:39:31;;;;;;;11.63;3.17;;;;;;;;;;5010715;28;20182;-75
2021/11/07 16:42:03;;;;;;;11.00;3.30;;;;;;;;;;5016370;28;20204;-75
2021/11/07 16:44:34;;;;;;;15.77;3.47;;;;;;;;;;5007533;28;20177;-75
2021/11/07 16:47:03;;;;;;;14.13;3.33;;;;;;;;;;5024123;28;20280;-74
2021/11/07 16:49:31;;;;;;;20.90;4.17;;;;;;;;;;5026128;28;20204;-75
2021/11/07 16:52:07;;;;;;;18.87;3.77;;;;;;;;;;5027793;28;20679;-75